• Join FlightAware (Why Join?)
  • Login
  • US Flag 
08:54AM EDT


 

Airport Tracker/Info


-or-


 

Live Flight TrackerFlight Track Log ✈ JZA8745 ✈ 17-May-2013 ✈ CZBF - CYUL

Flight Track Log - Related Links

Times and Time Zones

All times are in EDT time to prevent confusion due to time zone crossing. See the JZA8745 flight status page for this flight to view local times or setup timezone preferences in your user account.

Time Position Orientation Groundspeed Altitude Reporting Facility
EDT Latitude Longitude Course Direction KTS MPH feet Rate Location/Type
03:05PM 47.5500 -65.9333 244° Southwest 150 173 5,500  Level Moncton Center
03:06PM 47.5167 -66.0167 239° Southwest 170 196 6,700 1,260 Climbing Moncton Center
03:07PM 47.5000 -66.0500 234° Southwest 180 207 8,100 1,320 Climbing Moncton Center
03:08PM 47.4833 -66.1333 254° West 180 207 9,400 1,260 Climbing Moncton Center
03:09PM 47.4500 -66.2000 234° Southwest 170 196 10,600 1,200 Climbing Moncton Center
03:10PM 47.3369 -66.5228 244° Southwest  Level FlightAware Approximate
03:10PM 47.4333 -66.2500 244° Southwest 180 207 11,800  Level Moncton Center
03:11PM 47.4167 -66.3333 254° West 180 207 13,000 1,020 Climbing Moncton Center
03:12PM 47.3833 -66.4000 234° Southwest 190 219 13,900 960 Climbing Moncton Center
03:13PM 47.3667 -66.4667 250° West 200 230 15,000 1,080 Climbing Moncton Center
03:14PM 47.3333 -66.5500 239° Southwest 200 230 16,100 960 Climbing Moncton Center
03:15PM 47.3167 -66.6000 244° Southwest 200 230 17,000 960 Climbing Moncton Center
03:16PM 47.2833 -66.7000 244° Southwest 200 230 18,100 960 Climbing Moncton Center
03:17PM 47.2500 -66.7667 234° Southwest 200 230 19,000 900 Climbing Moncton Center
03:18PM 47.2333 -66.8333 250° West 200 230 20,000 900 Climbing Moncton Center
03:19PM 47.2000 -66.9167 240° Southwest 200 230 20,900 840 Climbing Moncton Center
03:20PM 47.1833 -66.9667 244° Southwest 200 230 21,700 540 Climbing Moncton Center
03:21PM 47.1500 -67.0333 234° Southwest 200 230 22,000 120 Climbing Moncton Center
03:22PM 47.1167 -67.1333 244° Southwest 230 265 22,000  Level Moncton Center
03:23PM 47.1000 -67.2333 256° West 250 288 22,000  Level Moncton Center
03:24PM 47.0667 -67.3000 234° Southwest 250 288 22,000  Level Moncton Center
03:25PM 47.0167 -67.4000 234° Southwest 250 288 22,000  Level Moncton Center
03:26PM 46.9833 -67.4833 240° Southwest 260 299 22,000  Level Moncton Center
03:27PM 46.9500 -67.5833 244° Southwest 260 299 22,000  Level Moncton Center
03:28PM 46.9167 -67.6833 244° Southwest 270 311 22,000 -60 Level Moncton Center
03:29PM 46.8967 -67.7711 252° West 261 300 21,900  Descending Boston Center
03:30PM 46.8500 -67.8667 234° Southwest 260 299 22,000  Climbing Moncton Center
03:31PM 46.8264 -67.9500 248° West 271 312 21,900  Descending Boston Center
03:32PM 46.7947 -68.0433 244° Southwest 283 326 22,000  Climbing Boston Center
03:33PM 46.7550 -68.1586 243° Southwest 273 314 22,000  Level Boston Center
03:34PM 46.7272 -68.2547 247° West 268 308 22,000  Level Boston Center
03:35PM 46.6997 -68.3536 248° West 263 303 22,000  Level Boston Center
03:36PM 46.6697 -68.4525 246° West 263 303 22,000  Level Boston Center
03:37PM 46.6472 -68.5297 247° West 263 303 22,000  Level Boston Center
03:38PM 46.6114 -68.6439 245° Southwest 263 303 22,000  Level Boston Center
03:39PM 46.5833 -68.7394 247° West 263 303 22,000  Level Boston Center
03:40PM 46.5533 -68.8442 247° West 263 303 22,000  Level Boston Center
03:41PM 46.5247 -68.9394 246° West 263 303 22,000  Level Boston Center
03:42PM 46.4944 -69.0347 245° Southwest 263 303 22,000  Level Boston Center
03:43PM 46.4661 -69.1358 248° West 263 303 22,000 -60 Level Boston Center
03:44PM 46.4353 -69.2281 244° Southwest 268 308 21,900 -60 Descending Boston Center
03:45PM 46.4047 -69.3261 246° West 263 303 21,900  Level Boston Center
03:46PM 46.3758 -69.4211 246° West 263 303 21,900  Level Boston Center
03:47PM 46.3450 -69.5189 245° Southwest 263 303 21,900  Level Boston Center
03:48PM 46.3161 -69.6164 247° West 263 303 21,900  Level Boston Center
03:49PM 46.2792 -69.7294 245° Southwest 263 303 21,900  Level Boston Center
03:50PM 46.2481 -69.8269 245° Southwest 263 303 21,900  Level Boston Center
03:51PM 46.2169 -69.9214 245° Southwest 263 303 21,900  Level Boston Center
03:52PM 46.1897 -70.0186 248° West 263 303 21,900  Level Boston Center
03:53PM 46.1583 -70.1128 244° Southwest 263 303 21,900  Level Boston Center
03:54PM 46.1269 -70.2097 245° Southwest 263 303 21,900  Level Boston Center
03:55PM 46.0833 -70.2833 230° Southwest 260 299 22,000  Climbing Moncton Center
03:56PM 46.0667 -70.3833 257° West 260 299 22,000  Level Moncton Center
03:57PM 46.0333 -70.4667 240° Southwest 260 299 22,000  Level Moncton Center
03:58PM 46.0000 -70.5667 244° Southwest 260 299 22,000  Level Moncton Center
03:59PM 45.9667 -70.6667 244° Southwest 260 299 22,000  Level Moncton Center
04:00PM 45.9500 -70.7833 258° West 260 299 22,000  Level Moncton Center
04:01PM 45.9000 -70.8667 229° Southwest 260 299 22,000  Level Moncton Center
04:02PM 45.9000 -70.9667 270° West 260 299 22,000  Level Moncton Center
04:03PM 45.9000 -71.0667 270° West 260 299 22,000  Level Moncton Center
04:04PM 45.8833 -71.1500 254° West 250 288 22,000  Level Moncton Center
04:05PM 45.8833 -71.2833 270° West 250 288 22,000  Level Moncton Center
04:06PM 45.8667 -71.3667 254° West 250 288 22,000  Level Moncton Center
04:07PM 45.8500 -71.4667 257° West 260 299 22,000  Level Moncton Center
04:08PM 45.8500 -71.5667 270° West 250 288 22,000  Level Moncton Center
04:09PM 45.8333 -71.6500 254° West 250 288 22,000  Level Moncton Center
04:10PM 45.8333 -71.7833 270° West 260 299 22,000  Level Moncton Center
04:11PM 45.8333 -71.8667 270° West 250 288 22,000  Level Moncton Center
04:12PM 45.8000 -71.9667 244° Southwest 250 288 22,000 -300 Level Moncton Center
04:13PM 45.8000 -72.0833 270° West 250 288 21,500 -900 Descending Moncton Center
04:14PM 45.7833 -72.1833 257° West 280 322 20,300 -1,320 Descending Moncton Center
04:15PM 45.7833 -72.3000 270° West 290 334 18,900 -1,320 Descending Moncton Center
04:16PM 45.7667 -72.4167 258° West 290 334 17,700 -1,380 Descending Moncton Center
04:17PM 45.7500 -72.5333 258° West 280 322 16,200 -1,440 Descending Moncton Center
04:18PM 45.7333 -72.6333 257° West 280 322 14,900 -1,320 Descending Moncton Center
04:19PM 45.7333 -72.7500 270° West 280 322 13,600 -1,380 Descending Moncton Center
04:20PM 45.7167 -72.8667 258° West 280 322 12,200 -1,320 Descending Moncton Center
04:21PM 45.7167 -72.9667 270° West 270 311 11,000 -1,320 Descending Moncton Center
04:22PM 45.7000 -73.0500 254° West 260 299 9,600 -1,260 Descending Moncton Center
04:23PM 45.6833 -73.1500 257° West 260 299 8,500 -1,140 Descending Moncton Center
04:24PM 45.6833 -73.2500 270° West 250 288 7,400 -1,080 Descending Moncton Center
04:25PM 45.6667 -73.3667 258° West 250 288 6,400 -840 Descending Moncton Center
04:26PM 45.6500 -73.4000 234° Southwest 190 219 5,600 -780 Descending Montreal Center
04:27PM 45.6333 -73.4833 254° West 200 230 4,700 -960 Descending Montreal Center
04:28PM 45.6000 -73.5500 234° Southwest 200 230 3,700 -1,020 Descending Montreal Center
04:29PM 45.5667 -73.6000 226° Southwest 190 219 2,700 -1,080 Descending Montreal Center
04:30PM 45.5333 -73.6500 226° Southwest 190 219 1,600 -1,140 Descending Montreal Center